createdAt,value
2023-05-02T00:00:12.191Z,9.46
2023-05-02T00:01:14.413Z,9.51
2023-05-02T00:02:16.311Z,9.51
2023-05-02T00:03:18.457Z,9.59
2023-05-02T00:04:20.892Z,9.36
2023-05-02T00:05:23.586Z,8.08
2023-05-02T00:06:25.834Z,9.44
2023-05-02T00:07:28.327Z,9.40
2023-05-02T00:08:30.129Z,9.40
2023-05-02T00:09:32.058Z,9.50
2023-05-02T00:10:34.319Z,9.45
2023-05-02T00:11:36.166Z,8.81
2023-05-02T00:12:38.052Z,8.79
2023-05-02T00:13:39.896Z,9.40
2023-05-02T00:14:41.698Z,9.37
2023-05-02T00:15:44.066Z,8.56
2023-05-02T00:16:46.100Z,9.45
2023-05-02T00:17:48.327Z,9.41
2023-05-02T00:18:50.280Z,9.30
2023-05-02T00:19:52.147Z,9.49
2023-05-02T00:20:55.421Z,9.26
2023-05-02T00:21:57.204Z,8.74
2023-05-02T00:22:58.990Z,9.44
2023-05-02T00:24:00.741Z,9.61
2023-05-02T00:25:02.678Z,9.54
2023-05-02T00:26:09.439Z,9.61
2023-05-02T00:27:11.432Z,9.56
2023-05-02T00:28:13.301Z,8.97
2023-05-02T00:29:15.098Z,9.07
2023-05-02T00:30:17.710Z,9.77
2023-05-02T00:31:19.644Z,9.61
2023-05-02T00:32:21.487Z,9.77
2023-05-02T00:33:23.237Z,9.81
2023-05-02T00:34:30.034Z,9.71
2023-05-02T00:35:33.858Z,9.67
2023-05-02T00:36:35.647Z,9.19
2023-05-02T00:37:37.401Z,9.81
2023-05-02T00:38:39.218Z,9.42
2023-05-02T00:39:41.035Z,9.31
2023-05-02T00:40:47.443Z,9.43
2023-05-02T00:41:49.298Z,9.85
2023-05-02T00:42:51.225Z,9.99
2023-05-02T00:43:53.236Z,9.96
2023-05-02T00:44:55.080Z,9.97
2023-05-02T00:45:56.864Z,9.72
2023-05-02T00:47:01.137Z,9.93
2023-05-02T00:48:02.984Z,9.50
2023-05-02T00:49:04.926Z,9.25
2023-05-02T00:50:07.338Z,10.28
2023-05-02T00:51:09.275Z,10.16
2023-05-02T00:52:11.161Z,10.11
2023-05-02T00:53:13.059Z,10.31
2023-05-02T00:54:15.585Z,9.56
2023-05-02T00:55:17.566Z,9.36
2023-05-02T00:56:19.332Z,9.26
2023-05-02T00:57:21.087Z,9.47
2023-05-02T00:58:22.895Z,9.15
2023-05-02T00:59:26.096Z,9.62
2023-05-02T01:01:07.633Z,9.20
2023-05-02T01:02:36.894Z,9.94
2023-05-02T01:03:57.404Z,10.05
2023-05-02T01:05:33.222Z,9.97
2023-05-02T01:06:46.717Z,9.80
2023-05-02T01:08:10.539Z,9.72
2023-05-02T01:09:12.388Z,9.74
2023-05-02T01:10:47.864Z,9.70
2023-05-02T01:12:09.377Z,9.56
2023-05-02T01:13:33.710Z,9.57
2023-05-02T01:14:42.532Z,9.55
2023-05-02T01:15:45.760Z,9.51
2023-05-02T01:16:50.323Z,9.65
2023-05-02T01:19:59.632Z,8.93
2023-05-02T01:21:04.875Z,9.91
2023-05-02T01:22:09.903Z,9.65
2023-05-02T01:23:27.543Z,8.85
2023-05-02T01:24:35.446Z,8.88
2023-05-02T01:25:58.959Z,8.78
2023-05-02T01:27:22.973Z,9.59
2023-05-02T01:29:02.221Z,9.62
2023-05-02T01:30:06.492Z,9.51
2023-05-02T01:31:08.405Z,9.22
2023-05-02T01:32:13.612Z,9.30
2023-05-02T01:33:17.334Z,8.55
2023-05-02T01:34:21.874Z,9.13
2023-05-02T01:35:25.864Z,9.30
2023-05-02T01:36:30.662Z,8.39
2023-05-02T01:37:34.088Z,9.24
2023-05-02T01:38:37.638Z,9.33
2023-05-02T01:39:41.117Z,8.42
2023-05-02T01:40:45.752Z,8.42
2023-05-02T01:41:50.786Z,8.90
2023-05-02T01:42:53.951Z,9.22
2023-05-02T01:44:00.529Z,8.33
2023-05-02T01:45:05.026Z,8.31
2023-05-02T01:46:10.596Z,9.05
2023-05-02T01:47:13.633Z,8.32
2023-05-02T01:48:19.351Z,8.54
2023-05-02T01:49:24.414Z,8.21
2023-05-02T01:50:26.587Z,9.09
2023-05-02T01:51:32.659Z,9.03
2023-05-02T01:52:35.041Z,9.12
2023-05-02T01:53:39.035Z,8.32
2023-05-02T01:54:41.454Z,8.14
2023-05-02T01:55:45.891Z,8.25
2023-05-02T01:56:48.245Z,8.49
2023-05-02T01:57:53.310Z,9.18
2023-05-02T01:58:56.525Z,8.86
2023-05-02T01:59:59.836Z,9.06
2023-05-02T02:01:03.089Z,8.27
2023-05-02T02:02:07.892Z,8.99
2023-05-02T02:03:10.527Z,9.06
2023-05-02T02:04:15.164Z,8.78
2023-05-02T02:05:18.876Z,8.03
2023-05-02T02:06:21.869Z,8.78
2023-05-02T02:07:24.024Z,8.59
2023-05-02T02:08:25.946Z,7.88
2023-05-02T02:09:27.730Z,8.66
2023-05-02T02:10:36.277Z,7.82
2023-05-02T02:11:52.583Z,8.01
2023-05-02T02:13:12.830Z,7.82
2023-05-02T02:14:20.119Z,7.87
2023-05-02T02:15:28.309Z,8.59
2023-05-02T02:16:32.922Z,8.43
2023-05-02T02:17:42.998Z,7.77
2023-05-02T02:18:45.214Z,8.30
2023-05-02T02:19:47.004Z,7.75
2023-05-02T02:20:51.030Z,8.50
2023-05-02T02:21:56.448Z,8.36
2023-05-02T02:23:00.629Z,8.36
2023-05-02T02:24:05.395Z,8.35
2023-05-02T02:25:10.989Z,8.39
2023-05-02T02:26:13.848Z,8.41
2023-05-02T02:27:15.867Z,8.26
2023-05-02T02:28:17.689Z,8.21
2023-05-02T02:29:19.411Z,7.39
2023-05-02T02:30:21.140Z,7.32
2023-05-02T02:31:22.899Z,7.49
2023-05-02T02:32:24.758Z,7.49
2023-05-02T02:33:30.769Z,7.91
2023-05-02T02:34:32.627Z,7.10
2023-05-02T02:35:40.485Z,7.92
2023-05-02T02:36:47.934Z,7.03
2023-05-02T02:38:23.501Z,7.89
2023-05-02T02:40:03.547Z,7.19
2023-05-02T02:41:16.699Z,7.97
2023-05-02T02:42:40.112Z,8.11
2023-05-02T02:44:12.200Z,8.10
2023-05-02T02:45:33.492Z,8.18
2023-05-02T02:47:09.740Z,8.12
2023-05-02T02:48:34.580Z,8.25
2023-05-02T02:49:58.039Z,8.26
2023-05-02T02:51:07.481Z,8.27
2023-05-02T02:52:30.649Z,8.30
2023-05-02T02:54:00.410Z,8.39
2023-05-02T02:55:17.078Z,8.38
2023-05-02T02:56:29.039Z,7.57
2023-05-02T02:57:41.217Z,8.40
2023-05-02T02:58:57.844Z,8.38
2023-05-02T02:59:59.724Z,8.55
2023-05-02T03:01:06.615Z,8.52
2023-05-02T03:02:12.544Z,8.49
2023-05-02T03:03:15.905Z,8.53
2023-05-02T03:04:21.998Z,8.59
2023-05-02T03:05:24.243Z,7.91
2023-05-02T03:06:26.579Z,8.52
2023-05-02T03:07:29.076Z,7.71
2023-05-02T03:08:42.707Z,8.36
2023-05-02T03:09:45.854Z,8.47
2023-05-02T03:10:47.544Z,8.42
2023-05-02T03:11:49.311Z,7.64
2023-05-02T03:12:51.164Z,8.53
2023-05-02T03:13:53.043Z,7.77
2023-05-02T03:15:03.690Z,7.64
2023-05-02T03:16:29.777Z,8.61
2023-05-02T03:17:31.556Z,8.42
2023-05-02T03:18:33.352Z,8.40
2023-05-02T03:19:35.132Z,8.46
2023-05-02T03:20:36.931Z,8.20
2023-05-02T03:21:38.951Z,8.35
2023-05-02T03:22:40.637Z,8.26
2023-05-02T03:23:42.318Z,7.86
2023-05-02T03:24:44.005Z,7.79
2023-05-02T03:25:45.688Z,8.53
2023-05-02T03:26:47.421Z,8.45
2023-05-02T03:27:49.069Z,7.59
2023-05-02T03:28:50.807Z,7.61
2023-05-02T03:29:52.507Z,8.51
2023-05-02T03:30:54.393Z,8.37
2023-05-02T03:31:56.107Z,8.33
2023-05-02T03:32:57.842Z,8.21
2023-05-02T03:33:59.701Z,7.97
2023-05-02T03:35:01.400Z,8.09
2023-05-02T03:36:03.351Z,8.00
2023-05-02T03:37:05.124Z,8.21
2023-05-02T03:38:07.045Z,8.13
2023-05-02T03:39:08.865Z,8.46
2023-05-02T03:40:11.154Z,7.64
2023-05-02T03:41:12.857Z,8.43
2023-05-02T03:42:14.506Z,8.40
2023-05-02T03:43:16.225Z,8.33
2023-05-02T03:44:17.876Z,8.33
2023-05-02T03:45:19.575Z,8.02
2023-05-02T03:46:21.476Z,8.42
2023-05-02T03:47:23.278Z,8.67
2023-05-02T03:48:25.143Z,8.68
2023-05-02T03:49:26.945Z,8.28
2023-05-02T03:50:28.872Z,8.06
2023-05-02T03:51:30.583Z,8.36
2023-05-02T03:52:33.973Z,8.97
2023-05-02T03:53:36.424Z,8.95
2023-05-02T03:54:38.133Z,8.18
2023-05-02T03:55:40.737Z,9.07
2023-05-02T03:56:42.952Z,9.18
2023-05-02T03:57:44.734Z,9.13
2023-05-02T03:58:46.744Z,9.04
2023-05-02T03:59:48.563Z,8.42
2023-05-02T04:00:50.297Z,9.10
2023-05-02T04:01:52.112Z,8.43
2023-05-02T04:02:53.912Z,9.21
2023-05-02T04:03:55.758Z,8.47
2023-05-02T04:04:57.495Z,9.30
2023-05-02T04:05:59.222Z,8.59
2023-05-02T04:07:01.120Z,9.40
2023-05-02T04:08:02.810Z,9.28
2023-05-02T04:09:04.604Z,9.48
2023-05-02T04:10:06.645Z,9.42
2023-05-02T04:11:08.467Z,9.47
2023-05-02T04:12:10.263Z,9.39
2023-05-02T04:13:11.989Z,9.32
2023-05-02T04:14:13.624Z,8.89
2023-05-02T04:15:15.708Z,9.38
2023-05-02T04:16:17.430Z,9.60
2023-05-02T04:17:19.198Z,9.40
2023-05-02T04:18:21.014Z,9.65
2023-05-02T04:19:22.864Z,9.58
2023-05-02T04:20:24.946Z,9.67
2023-05-02T04:21:26.707Z,9.04
2023-05-02T04:22:28.771Z,9.67
2023-05-02T04:23:30.623Z,9.56
2023-05-02T04:24:32.292Z,8.83
2023-05-02T04:25:33.911Z,9.08
2023-05-02T04:26:35.568Z,9.15
2023-05-02T04:27:37.204Z,9.93
2023-05-02T04:28:38.861Z,9.77
2023-05-02T04:29:40.549Z,10.04
2023-05-02T04:30:42.242Z,9.94
2023-05-02T04:31:44.524Z,10.04
2023-05-02T04:32:47.229Z,9.23
2023-05-02T04:33:49.107Z,10.21
2023-05-02T04:34:51.008Z,9.72
2023-05-02T04:35:52.673Z,10.08
2023-05-02T04:36:54.387Z,10.30
2023-05-02T04:37:56.041Z,10.27
2023-05-02T04:38:57.759Z,10.26
2023-05-02T04:39:59.670Z,10.26
2023-05-02T04:41:09.281Z,10.32
2023-05-02T04:42:11.647Z,10.48
2023-05-02T04:43:13.369Z,9.75
2023-05-02T04:44:15.210Z,9.86
2023-05-02T04:45:16.996Z,9.85
2023-05-02T04:46:18.858Z,9.81
2023-05-02T04:47:20.649Z,10.76
2023-05-02T04:48:22.386Z,10.49
2023-05-02T04:49:24.218Z,10.62
2023-05-02T04:50:26.073Z,10.12
2023-05-02T04:51:27.850Z,10.75
2023-05-02T04:52:30.605Z,10.81
2023-05-02T04:53:32.281Z,10.71
2023-05-02T04:54:34.850Z,10.80
2023-05-02T04:55:36.585Z,10.33
2023-05-02T04:56:38.245Z,10.11
2023-05-02T04:57:39.937Z,10.96
2023-05-02T04:58:41.655Z,10.79
2023-05-02T04:59:43.426Z,10.94
2023-05-02T05:00:45.190Z,11.07
2023-05-02T05:01:46.954Z,11.12
2023-05-02T05:02:48.902Z,11.12
2023-05-02T05:03:50.870Z,11.15
2023-05-02T05:04:52.840Z,10.63
2023-05-02T05:05:54.576Z,10.50
2023-05-02T05:06:56.398Z,10.50
2023-05-02T05:07:58.222Z,10.66
2023-05-02T05:08:59.922Z,11.28
2023-05-02T05:10:01.977Z,11.35
2023-05-02T05:11:04.241Z,11.19
2023-05-02T05:12:06.025Z,11.50
2023-05-02T05:13:07.835Z,11.40
2023-05-02T05:14:09.835Z,10.57
2023-05-02T05:15:11.996Z,10.89
2023-05-02T05:16:13.866Z,11.59
2023-05-02T05:17:15.651Z,10.73
2023-05-02T05:18:17.332Z,10.94
2023-05-02T05:19:18.992Z,11.53
2023-05-02T05:20:20.692Z,11.46
2023-05-02T05:21:22.546Z,11.44
2023-05-02T05:22:24.351Z,11.62
2023-05-02T05:23:26.106Z,11.67
2023-05-02T05:24:27.865Z,10.93
2023-05-02T05:25:29.904Z,11.67
2023-05-02T05:26:31.648Z,10.88
2023-05-02T05:27:34.777Z,11.70
2023-05-02T05:28:36.638Z,11.58
2023-05-02T05:29:38.325Z,11.90
2023-05-02T05:30:40.011Z,11.02
2023-05-02T05:31:41.719Z,10.97
2023-05-02T05:32:43.510Z,11.75
2023-05-02T05:33:45.286Z,11.88
2023-05-02T05:34:46.994Z,11.94
2023-05-02T05:35:48.860Z,11.97
2023-05-02T05:36:50.877Z,11.95
2023-05-02T05:37:52.766Z,11.83
2023-05-02T05:38:54.492Z,11.89
2023-05-02T05:39:56.251Z,11.99
2023-05-02T05:40:58.002Z,11.97
2023-05-02T05:41:59.697Z,12.06
2023-05-02T05:43:01.420Z,11.80
2023-05-02T05:44:03.148Z,12.12
2023-05-02T05:45:05.159Z,11.42
2023-05-02T05:46:07.140Z,12.35
2023-05-02T05:47:08.928Z,12.32
2023-05-02T05:48:10.799Z,12.12
2023-05-02T05:49:12.566Z,12.10
2023-05-02T05:50:14.348Z,12.25
2023-05-02T05:51:16.132Z,12.06
2023-05-02T05:52:17.808Z,12.33
2023-05-02T05:53:19.818Z,11.65
2023-05-02T05:54:21.480Z,12.01
2023-05-02T05:55:23.376Z,11.72
2023-05-02T05:56:25.140Z,12.34
2023-05-02T05:57:26.835Z,11.80
2023-05-02T05:58:28.649Z,12.50
2023-05-02T05:59:30.409Z,12.58
2023-05-02T06:00:35.486Z,12.64
2023-05-02T06:01:37.181Z,12.72
2023-05-02T06:02:38.882Z,11.97
2023-05-02T06:03:40.977Z,12.23
2023-05-02T06:04:42.869Z,12.84
2023-05-02T06:05:44.550Z,11.97
2023-05-02T06:06:46.399Z,13.02
2023-05-02T06:07:48.352Z,13.08
2023-05-02T06:08:50.128Z,13.08
2023-05-02T06:09:51.898Z,13.07
2023-05-02T06:10:53.814Z,12.58
2023-05-02T06:11:55.655Z,13.32
2023-05-02T06:12:57.317Z,13.23
2023-05-02T06:13:59.323Z,13.29
2023-05-02T06:15:01.208Z,12.44
2023-05-02T06:16:03.050Z,13.43
2023-05-02T06:17:04.788Z,13.13
2023-05-02T06:18:06.512Z,13.19
2023-05-02T06:19:09.496Z,13.32
2023-05-02T06:20:11.571Z,12.40
2023-05-02T06:21:13.472Z,13.22
2023-05-02T06:22:15.320Z,13.16
2023-05-02T06:23:16.972Z,13.42
2023-05-02T06:24:18.876Z,12.72
2023-05-02T06:25:20.594Z,13.43
2023-05-02T06:26:22.338Z,13.35
2023-05-02T06:27:23.967Z,12.69
2023-05-02T06:28:25.704Z,13.53
2023-05-02T06:29:27.517Z,13.72
2023-05-02T06:30:29.274Z,13.87
2023-05-02T06:31:30.979Z,13.85
2023-05-02T06:32:32.718Z,13.24
2023-05-02T06:33:34.641Z,13.09
2023-05-02T06:34:36.356Z,14.14
2023-05-02T06:35:38.128Z,13.93
2023-05-02T06:36:39.816Z,13.39
2023-05-02T06:37:41.496Z,13.43
2023-05-02T06:38:43.183Z,13.51
2023-05-02T06:39:44.814Z,14.03
2023-05-02T06:40:46.807Z,13.94
2023-05-02T06:41:48.779Z,14.12
2023-05-02T06:42:50.534Z,14.36
2023-05-02T06:43:52.346Z,13.91
2023-05-02T06:44:54.137Z,14.53
2023-05-02T06:45:56.060Z,14.47
2023-05-02T06:46:57.857Z,13.64
2023-05-02T06:47:59.679Z,14.02
2023-05-02T06:49:01.526Z,14.37
2023-05-02T06:50:03.631Z,14.02
2023-05-02T06:51:05.481Z,14.73
2023-05-02T06:52:07.399Z,14.60
2023-05-02T06:53:09.226Z,14.61
2023-05-02T06:54:11.359Z,15.05
2023-05-02T06:55:13.171Z,14.88
2023-05-02T06:56:15.043Z,15.04
2023-05-02T06:57:16.828Z,15.06
2023-05-02T06:58:18.481Z,14.24
2023-05-02T06:59:20.177Z,14.56
2023-05-02T07:00:22.013Z,14.38
2023-05-02T07:01:23.814Z,15.24
2023-05-02T07:02:25.660Z,14.43
2023-05-02T07:03:27.468Z,14.58
2023-05-02T07:04:29.328Z,15.40
2023-05-02T07:05:31.222Z,15.40
2023-05-02T07:06:33.102Z,15.43
2023-05-02T07:07:34.990Z,15.25
2023-05-02T07:08:36.848Z,15.35
2023-05-02T07:09:38.573Z,15.18
2023-05-02T07:10:40.327Z,15.51
2023-05-02T07:11:41.990Z,15.65
2023-05-02T07:12:43.679Z,15.30
2023-05-02T07:13:45.370Z,15.64
2023-05-02T07:14:47.182Z,15.54
2023-05-02T07:15:48.994Z,15.07
2023-05-02T07:16:50.809Z,15.89
2023-05-02T07:17:52.794Z,16.09
2023-05-02T07:18:54.683Z,16.16
2023-05-02T07:19:56.478Z,15.80
2023-05-02T07:20:58.185Z,16.13
2023-05-02T07:21:59.890Z,16.27
2023-05-02T07:23:01.592Z,15.57
2023-05-02T07:24:03.598Z,16.39
2023-05-02T07:25:05.713Z,15.76
2023-05-02T07:26:07.558Z,16.45
2023-05-02T07:27:13.262Z,16.20
2023-05-02T07:28:15.099Z,16.64
2023-05-02T07:29:16.783Z,16.67
2023-05-02T07:30:18.486Z,16.01
2023-05-02T07:31:20.208Z,16.17
2023-05-02T07:32:22.383Z,17.01
2023-05-02T07:33:24.213Z,17.08
2023-05-02T07:34:26.008Z,16.50
2023-05-02T07:35:27.756Z,16.66
2023-05-02T07:36:29.614Z,17.23
2023-05-02T07:37:34.950Z,17.04
2023-05-02T07:38:36.881Z,17.16
2023-05-02T07:39:38.641Z,17.16
2023-05-02T07:40:40.392Z,16.42
2023-05-02T07:41:42.074Z,17.37
2023-05-02T07:42:43.744Z,17.53
2023-05-02T07:43:45.520Z,17.51
2023-05-02T07:44:47.226Z,16.84
2023-05-02T07:45:48.942Z,17.49
2023-05-02T07:46:50.705Z,17.76
2023-05-02T07:47:52.602Z,17.62
2023-05-02T07:48:54.443Z,16.95
2023-05-02T07:49:56.700Z,17.68
2023-05-02T07:51:06.628Z,17.69
2023-05-02T07:52:08.386Z,16.98
2023-05-02T07:53:10.250Z,17.65
2023-05-02T07:54:19.368Z,17.85
2023-05-02T07:55:21.171Z,17.78
2023-05-02T07:56:22.875Z,17.10
2023-05-02T07:57:24.615Z,17.80
2023-05-02T07:58:26.547Z,17.33
2023-05-02T07:59:28.301Z,17.84
2023-05-02T08:00:30.408Z,17.74
2023-05-02T08:01:32.189Z,17.22
2023-05-02T08:02:34.151Z,18.03
2023-05-02T08:03:36.201Z,17.93
2023-05-02T08:04:38.326Z,18.00
2023-05-02T08:05:40.047Z,17.21
2023-05-02T08:06:41.712Z,17.83
2023-05-02T08:07:43.494Z,17.88
2023-05-02T08:08:45.216Z,17.96
2023-05-02T08:09:46.903Z,17.78
2023-05-02T08:10:48.630Z,17.92
2023-05-02T08:11:50.344Z,17.00
2023-05-02T08:12:52.188Z,17.57
2023-05-02T08:13:54.807Z,18.11
2023-05-02T08:14:56.633Z,17.91
2023-05-02T08:15:58.685Z,18.22
2023-05-02T08:17:00.738Z,17.63
2023-05-02T08:18:02.602Z,17.53
2023-05-02T08:19:04.392Z,18.01
2023-05-02T08:20:06.701Z,18.05
2023-05-02T08:21:08.464Z,18.19
2023-05-02T08:22:10.428Z,18.26
2023-05-02T08:23:12.222Z,18.54
2023-05-02T08:24:14.029Z,18.50
2023-05-02T08:25:15.805Z,18.48
2023-05-02T08:26:17.612Z,18.58
2023-05-02T08:27:19.421Z,18.51
2023-05-02T08:28:21.121Z,18.63
2023-05-02T08:29:23.948Z,18.81
2023-05-02T08:30:25.660Z,19.12
2023-05-02T08:31:27.408Z,18.02
2023-05-02T08:32:29.088Z,18.92
2023-05-02T08:33:30.867Z,18.85
2023-05-02T08:34:32.602Z,18.56
2023-05-02T08:35:34.472Z,18.74
2023-05-02T08:36:36.244Z,19.07
2023-05-02T08:37:39.413Z,18.88
2023-05-02T08:38:42.268Z,19.07
2023-05-02T08:39:43.965Z,18.71
2023-05-02T08:40:46.012Z,18.71
2023-05-02T08:41:47.880Z,19.46
2023-05-02T08:42:50.858Z,19.49
2023-05-02T08:43:53.653Z,19.24
2023-05-02T08:44:55.478Z,19.54
2023-05-02T08:46:01.247Z,19.77
2023-05-02T08:47:03.695Z,19.91
2023-05-02T08:48:07.758Z,19.78
2023-05-02T08:49:15.778Z,20.01
2023-05-02T08:50:18.036Z,20.23
2023-05-02T08:52:27.520Z,19.65
2023-05-02T08:53:32.443Z,19.72
2023-05-02T08:54:34.384Z,20.13
2023-05-02T08:55:38.387Z,20.46
2023-05-02T08:56:40.293Z,20.19
2023-05-02T08:57:43.849Z,20.26
2023-05-02T08:58:45.545Z,19.37
2023-05-02T08:59:47.202Z,19.24
2023-05-02T09:00:49.352Z,19.48
2023-05-02T09:01:58.964Z,19.99
2023-05-02T09:03:23.980Z,20.08
2023-05-02T09:04:31.847Z,19.88
2023-05-02T09:05:41.083Z,20.23
2023-05-02T09:06:42.870Z,19.71
2023-05-02T09:07:48.968Z,20.58
2023-05-02T09:08:51.780Z,20.07
2023-05-02T09:09:53.909Z,20.35
2023-05-02T09:10:55.627Z,20.09
2023-05-02T09:11:57.430Z,20.83
2023-05-02T09:13:47.906Z,20.90
2023-05-02T09:15:09.648Z,20.75
2023-05-02T09:16:16.044Z,20.69
2023-05-02T09:17:17.849Z,19.92
2023-05-02T09:18:22.397Z,20.20
2023-05-02T09:19:25.370Z,20.56
2023-05-02T09:20:27.356Z,20.45
2023-05-02T09:21:39.793Z,20.51
2023-05-02T09:22:52.414Z,20.12
2023-05-02T09:23:58.236Z,19.83
2023-05-02T09:25:01.234Z,20.12
2023-05-02T09:26:14.904Z,20.78
2023-05-02T09:27:16.936Z,20.17
2023-05-02T09:28:18.728Z,20.72
2023-05-02T09:29:20.806Z,20.85
2023-05-02T09:30:24.932Z,20.37
2023-05-02T09:31:49.809Z,20.79
2023-05-02T09:32:52.663Z,21.49
2023-05-02T09:33:54.893Z,21.26
2023-05-02T09:35:06.709Z,21.19
2023-05-02T09:36:11.112Z,20.64
2023-05-02T09:37:35.658Z,21.26
2023-05-02T09:38:38.707Z,20.28
2023-05-02T09:39:40.547Z,20.56
2023-05-02T09:40:54.179Z,20.56
2023-05-02T09:41:56.802Z,21.01
2023-05-02T09:42:58.805Z,20.18
2023-05-02T09:44:00.619Z,20.68
2023-05-02T09:45:02.489Z,21.17
2023-05-02T09:46:06.583Z,21.03
2023-05-02T09:47:08.464Z,20.94
2023-05-02T09:48:10.219Z,20.70
2023-05-02T09:49:12.031Z,20.86
2023-05-02T09:50:34.298Z,21.04
2023-05-02T09:51:36.935Z,20.21
2023-05-02T09:52:38.642Z,21.04
2023-05-02T09:53:44.152Z,20.94
2023-05-02T09:54:46.016Z,21.03
2023-05-02T09:55:47.865Z,21.61
2023-05-02T09:56:56.806Z,20.78
2023-05-02T09:57:59.689Z,21.54
2023-05-02T09:59:15.327Z,21.34
2023-05-02T10:00:17.474Z,21.66
2023-05-02T10:01:20.339Z,21.81
2023-05-02T10:02:24.347Z,21.76
2023-05-02T10:03:28.224Z,21.17
2023-05-02T10:04:32.195Z,21.13
2023-05-02T10:05:37.345Z,21.95
2023-05-02T10:06:39.381Z,22.09
2023-05-02T10:07:41.357Z,21.61
2023-05-02T10:08:43.050Z,21.80
2023-05-02T10:09:45.496Z,22.22
2023-05-02T10:10:55.348Z,21.71
2023-05-02T10:11:57.287Z,21.68
2023-05-02T10:12:59.811Z,22.45
2023-05-02T10:14:01.697Z,21.99
2023-05-02T10:15:04.524Z,22.33
2023-05-02T10:16:07.485Z,21.94
2023-05-02T10:17:22.659Z,22.08
2023-05-02T10:18:28.300Z,21.80
2023-05-02T10:19:39.136Z,22.62
2023-05-02T10:20:48.474Z,21.79
2023-05-02T10:21:51.367Z,22.07
2023-05-02T10:22:53.915Z,22.56
2023-05-02T10:23:56.409Z,22.50
2023-05-02T10:24:59.925Z,22.76
2023-05-02T10:26:02.026Z,22.00
2023-05-02T10:27:04.511Z,22.75
2023-05-02T10:28:06.410Z,22.18
2023-05-02T10:29:08.445Z,22.73
2023-05-02T10:30:13.000Z,21.91
2023-05-02T10:31:15.594Z,22.53
2023-05-02T10:32:18.740Z,22.08
2023-05-02T10:33:24.082Z,22.31
2023-05-02T10:34:27.515Z,22.04
2023-05-02T10:35:30.776Z,22.32
2023-05-02T10:36:33.223Z,21.50
2023-05-02T10:37:38.641Z,21.18
2023-05-02T10:38:41.373Z,21.74
2023-05-02T10:39:43.220Z,22.29
2023-05-02T10:41:09.882Z,22.18
2023-05-02T10:42:11.979Z,21.58
2023-05-02T10:43:16.603Z,21.64
2023-05-02T10:44:18.692Z,22.19
2023-05-02T10:45:36.995Z,22.80
2023-05-02T10:46:40.708Z,22.78
2023-05-02T10:47:43.889Z,22.82
2023-05-02T10:49:10.403Z,22.98
2023-05-02T10:50:12.127Z,22.50
2023-05-02T10:51:28.553Z,22.92
2023-05-02T10:52:35.078Z,22.78
2023-05-02T10:53:38.468Z,23.24
2023-05-02T10:54:40.278Z,22.28
2023-05-02T10:55:42.192Z,23.35
2023-05-02T10:57:04.357Z,22.47
2023-05-02T10:58:06.045Z,23.74
2023-05-02T10:59:27.457Z,23.52
2023-05-02T11:00:34.109Z,23.23
2023-05-02T11:01:36.968Z,23.10
2023-05-02T11:02:38.872Z,22.85
2023-05-02T11:04:00.486Z,22.43
2023-05-02T11:05:04.786Z,22.12
2023-05-02T11:06:07.474Z,22.39
2023-05-02T11:07:19.004Z,23.56
2023-05-02T11:08:23.015Z,23.78
2023-05-02T11:09:25.079Z,23.70
2023-05-02T11:10:27.539Z,23.32
2023-05-02T11:11:43.648Z,23.26
2023-05-02T11:12:54.268Z,22.56
2023-05-02T11:13:56.153Z,23.27
2023-05-02T11:14:58.041Z,23.36
2023-05-02T11:16:00.099Z,23.43
2023-05-02T11:17:01.849Z,23.83
2023-05-02T11:18:03.800Z,23.34
2023-05-02T11:19:05.518Z,23.16
2023-05-02T11:20:19.742Z,23.39
2023-05-02T11:21:29.190Z,23.23
2023-05-02T11:22:31.506Z,23.48
2023-05-02T11:23:33.254Z,23.53
2023-05-02T11:24:42.633Z,23.40
2023-05-02T11:25:49.186Z,23.31
2023-05-02T11:26:50.937Z,22.56
2023-05-02T11:27:52.644Z,23.05
2023-05-02T11:28:54.374Z,23.00
2023-05-02T11:29:57.378Z,22.42
2023-05-02T11:30:59.167Z,22.75
2023-05-02T11:32:00.970Z,22.75
2023-05-02T11:33:05.754Z,22.82
2023-05-02T11:34:07.558Z,23.03
2023-05-02T11:35:21.446Z,22.86
2023-05-02T11:36:33.992Z,22.69
2023-05-02T11:37:35.745Z,22.92
2023-05-02T11:38:38.921Z,23.51
2023-05-02T11:39:40.814Z,23.15
2023-05-02T11:40:51.401Z,23.19
2023-05-02T11:41:53.123Z,23.09
2023-05-02T11:42:55.737Z,22.97
2023-05-02T11:44:03.908Z,21.66
2023-05-02T11:45:06.157Z,22.73
2023-05-02T11:46:08.052Z,22.88
2023-05-02T11:47:09.799Z,23.08
2023-05-02T11:48:17.365Z,22.42
2023-05-02T11:49:19.362Z,22.26
2023-05-02T11:50:21.313Z,23.29
2023-05-02T11:51:23.619Z,23.69
2023-05-02T11:52:25.419Z,23.56
2023-05-02T11:53:28.701Z,23.13
2023-05-02T11:54:30.852Z,24.01
2023-05-02T11:55:32.642Z,24.09
2023-05-02T11:56:34.498Z,23.53
2023-05-02T11:57:37.180Z,22.80
2023-05-02T11:58:39.347Z,23.35
2023-05-02T11:59:51.610Z,22.77
2023-05-02T12:00:53.842Z,23.26
2023-05-02T12:01:55.560Z,23.02
2023-05-02T12:02:57.461Z,23.12
2023-05-02T12:04:06.677Z,23.33
2023-05-02T12:05:10.069Z,23.61
2023-05-02T12:06:15.143Z,22.94
2023-05-02T12:07:17.168Z,23.32
2023-05-02T12:08:28.798Z,22.95
2023-05-02T12:09:30.498Z,23.31
2023-05-02T12:10:38.724Z,23.38
2023-05-02T12:11:41.400Z,23.43
2023-05-02T12:12:44.626Z,23.01
2023-05-02T12:13:49.976Z,22.78
2023-05-02T12:14:52.131Z,24.03
2023-05-02T12:15:55.146Z,23.57
2023-05-02T12:16:58.801Z,23.58
2023-05-02T12:18:01.786Z,23.26
2023-05-02T12:19:04.005Z,23.82
2023-05-02T12:20:08.492Z,24.14
2023-05-02T12:21:10.631Z,24.06
2023-05-02T12:22:12.816Z,23.19
2023-05-02T12:23:14.725Z,23.17
2023-05-02T12:24:17.005Z,23.98
2023-05-02T12:25:18.964Z,23.70
2023-05-02T12:26:25.460Z,23.88
2023-05-02T12:27:27.463Z,23.10
2023-05-02T12:28:29.111Z,23.86
2023-05-02T12:29:41.959Z,22.91
2023-05-02T12:30:47.260Z,23.72
2023-05-02T12:31:51.892Z,23.32
2023-05-02T12:32:57.130Z,23.35
2023-05-02T12:33:59.467Z,23.32
2023-05-02T12:35:03.188Z,23.09
2023-05-02T12:36:08.412Z,23.01
2023-05-02T12:37:10.360Z,22.34
2023-05-02T12:38:18.710Z,22.93
2023-05-02T12:39:43.795Z,22.77
2023-05-02T12:40:53.340Z,21.59
2023-05-02T12:41:55.048Z,22.47
2023-05-02T12:43:01.349Z,21.49
2023-05-02T12:44:03.348Z,22.65
2023-05-02T12:45:05.664Z,22.79
2023-05-02T12:46:10.892Z,22.38
2023-05-02T12:47:14.601Z,22.23
2023-05-02T12:48:26.790Z,22.04
2023-05-02T12:49:28.604Z,21.26
2023-05-02T12:50:40.275Z,22.10
2023-05-02T12:51:42.160Z,21.34
2023-05-02T12:52:49.853Z,22.21
2023-05-02T12:53:51.520Z,21.89
2023-05-02T12:54:53.396Z,22.18
2023-05-02T12:56:04.661Z,22.52
2023-05-02T12:57:06.756Z,22.74
2023-05-02T12:58:10.230Z,22.71
2023-05-02T12:59:27.822Z,22.94
2023-05-02T13:00:31.617Z,23.01
2023-05-02T13:01:34.038Z,23.11
2023-05-02T13:02:35.827Z,22.97
2023-05-02T13:03:37.955Z,22.42
2023-05-02T13:04:41.505Z,23.21
2023-05-02T13:05:43.472Z,23.16
2023-05-02T13:06:46.998Z,22.69
2023-05-02T13:07:49.120Z,23.25
2023-05-02T13:08:50.806Z,22.98
2023-05-02T13:09:52.660Z,22.96
2023-05-02T13:10:54.352Z,23.35
2023-05-02T13:11:56.056Z,22.77
2023-05-02T13:12:57.783Z,22.77
2023-05-02T13:13:59.606Z,22.10
2023-05-02T13:15:01.336Z,21.87
2023-05-02T13:16:03.219Z,22.65
2023-05-02T13:17:05.243Z,22.36
2023-05-02T13:18:07.132Z,22.32
2023-05-02T13:19:08.881Z,21.94
2023-05-02T13:20:11.297Z,22.18
2023-05-02T13:21:13.044Z,22.91
2023-05-02T13:22:14.684Z,22.79
2023-05-02T13:23:16.406Z,22.91
2023-05-02T13:24:18.165Z,22.38
2023-05-02T13:25:20.030Z,22.71
2023-05-02T13:26:21.804Z,22.13
2023-05-02T13:27:24.197Z,22.60
2023-05-02T13:28:26.025Z,22.83
2023-05-02T13:29:27.826Z,22.64
2023-05-02T13:30:29.577Z,22.72
2023-05-02T13:31:31.337Z,22.15
2023-05-02T13:32:33.081Z,22.73
2023-05-02T13:33:34.746Z,22.81
2023-05-02T13:34:36.529Z,23.00
2023-05-02T13:35:38.196Z,22.53
2023-05-02T13:36:40.065Z,22.81
2023-05-02T13:37:42.135Z,22.40
2023-05-02T13:38:43.968Z,22.01
2023-05-02T13:39:45.767Z,22.98
2023-05-02T13:40:47.537Z,22.19
2023-05-02T13:41:49.319Z,23.06
2023-05-02T13:42:50.962Z,22.87
2023-05-02T13:43:52.754Z,22.19
2023-05-02T13:44:54.448Z,22.73
2023-05-02T13:45:56.338Z,21.65
2023-05-02T13:46:58.413Z,21.98
2023-05-02T13:48:00.289Z,22.78
2023-05-02T13:49:03.496Z,22.24
2023-05-02T13:50:05.717Z,22.75
2023-05-02T13:51:07.593Z,22.65
2023-05-02T13:52:09.368Z,23.06
2023-05-02T13:53:11.058Z,22.93
2023-05-02T13:54:12.819Z,22.95
2023-05-02T13:55:14.486Z,22.65
2023-05-02T13:56:16.214Z,22.24
2023-05-02T13:57:17.977Z,22.58
2023-05-02T13:58:19.686Z,22.65